sensor_id;sensor_type;location;lat;lon;timestamp;temperature;humidity
2603;DHT22;1311;47.966;7.958;2023-03-15T00:00:05;3.50;99.90
2603;DHT22;1311;47.966;7.958;2023-03-15T00:02:34;3.40;99.90
2603;DHT22;1311;47.966;7.958;2023-03-15T00:05:01;3.40;99.90
2603;DHT22;1311;47.966;7.958;2023-03-15T00:07:28;3.30;99.90
2603;DHT22;1311;47.966;7.958;2023-03-15T00:09:55;3.30;99.90
2603;DHT22;1311;47.966;7.958;2023-03-15T00:12:22;3.20;99.90
2603;DHT22;1311;47.966;7.958;2023-03-15T00:14:50;3.20;99.90
2603;DHT22;1311;47.966;7.958;2023-03-15T00:17:18;3.30;99.90
2603;DHT22;1311;47.966;7.958;2023-03-15T00:19:47;3.20;99.90
2603;DHT22;1311;47.966;7.958;2023-03-15T00:22:14;3.20;99.90
2603;DHT22;1311;47.966;7.958;2023-03-15T00:24:40;3.10;99.90
2603;DHT22;1311;47.966;7.958;2023-03-15T00:27:07;3.10;99.90
2603;DHT22;1311;47.966;7.958;2023-03-15T00:29:34;3.00;99.90
2603;DHT22;1311;47.966;7.958;2023-03-15T00:32:01;2.90;99.90
2603;DHT22;1311;47.966;7.958;2023-03-15T00:34:31;2.80;99.90
2603;DHT22;1311;47.966;7.958;2023-03-15T00:36:58;2.90;99.90
2603;DHT22;1311;47.966;7.958;2023-03-15T00:39:24;2.90;99.90
2603;DHT22;1311;47.966;7.958;2023-03-15T00:41:51;2.90;99.90
2603;DHT22;1311;47.966;7.958;2023-03-15T00:44:21;2.90;99.90
2603;DHT22;1311;47.966;7.958;2023-03-15T00:46:48;2.90;99.90
2603;DHT22;1311;47.966;7.958;2023-03-15T00:49:14;3.00;99.90
2603;DHT22;1311;47.966;7.958;2023-03-15T00:51:43;3.00;99.90
2603;DHT22;1311;47.966;7.958;2023-03-15T00:54:09;2.90;99.90
2603;DHT22;1311;47.966;7.958;2023-03-15T00:56:38;2.90;99.90
2603;DHT22;1311;47.966;7.958;2023-03-15T00:59:05;2.80;99.90
2603;DHT22;1311;47.966;7.958;2023-03-15T01:01:33;2.70;99.90
2603;DHT22;1311;47.966;7.958;2023-03-15T01:03:59;2.70;99.90
2603;DHT22;1311;47.966;7.958;2023-03-15T01:06:27;2.60;99.90
2603;DHT22;1311;47.966;7.958;2023-03-15T01:08:56;2.50;99.90
2603;DHT22;1311;47.966;7.958;2023-03-15T01:11:25;2.40;99.90
2603;DHT22;1311;47.966;7.958;2023-03-15T01:13:53;2.30;99.90
2603;DHT22;1311;47.966;7.958;2023-03-15T01:16:20;2.20;99.90
2603;DHT22;1311;47.966;7.958;2023-03-15T01:18:47;2.10;99.90
2603;DHT22;1311;47.966;7.958;2023-03-15T01:21:16;2.10;99.90
2603;DHT22;1311;47.966;7.958;2023-03-15T01:23:43;2.00;99.90
2603;DHT22;1311;47.966;7.958;2023-03-15T01:26:12;2.00;99.90
2603;DHT22;1311;47.966;7.958;2023-03-15T01:28:39;2.00;99.90
2603;DHT22;1311;47.966;7.958;2023-03-15T01:31:08;1.90;99.90
2603;DHT22;1311;47.966;7.958;2023-03-15T01:33:40;1.80;99.90
2603;DHT22;1311;47.966;7.958;2023-03-15T01:36:07;1.80;99.90
2603;DHT22;1311;47.966;7.958;2023-03-15T01:38:34;1.70;99.90
2603;DHT22;1311;47.966;7.958;2023-03-15T01:41:01;1.70;99.90
2603;DHT22;1311;47.966;7.958;2023-03-15T01:43:30;1.60;99.90
2603;DHT22;1311;47.966;7.958;2023-03-15T01:46:27;1.50;99.90
2603;DHT22;1311;47.966;7.958;2023-03-15T01:49:02;1.50;99.90
2603;DHT22;1311;47.966;7.958;2023-03-15T01:51:34;1.40;99.90
2603;DHT22;1311;47.966;7.958;2023-03-15T01:54:05;1.40;99.90
2603;DHT22;1311;47.966;7.958;2023-03-15T01:56:35;1.30;99.90
2603;DHT22;1311;47.966;7.958;2023-03-15T01:59:05;1.20;99.90
2603;DHT22;1311;47.966;7.958;2023-03-15T02:01:35;1.10;99.90
2603;DHT22;1311;47.966;7.958;2023-03-15T02:04:05;1.00;99.90
2603;DHT22;1311;47.966;7.958;2023-03-15T02:06:33;1.00;99.90
2603;DHT22;1311;47.966;7.958;2023-03-15T02:09:03;0.90;99.90
2603;DHT22;1311;47.966;7.958;2023-03-15T02:11:32;0.90;99.90
2603;DHT22;1311;47.966;7.958;2023-03-15T02:14:01;0.80;99.90
2603;DHT22;1311;47.966;7.958;2023-03-15T02:16:30;0.70;99.90
2603;DHT22;1311;47.966;7.958;2023-03-15T02:18:57;0.70;99.90
2603;DHT22;1311;47.966;7.958;2023-03-15T02:21:35;0.60;99.90
2603;DHT22;1311;47.966;7.958;2023-03-15T02:24:14;0.60;99.90
2603;DHT22;1311;47.966;7.958;2023-03-15T02:26:47;0.50;99.90
2603;DHT22;1311;47.966;7.958;2023-03-15T02:29:17;0.50;99.90
2603;DHT22;1311;47.966;7.958;2023-03-15T02:31:44;0.40;99.90
2603;DHT22;1311;47.966;7.958;2023-03-15T02:34:10;0.30;99.90
2603;DHT22;1311;47.966;7.958;2023-03-15T02:36:37;0.30;99.90
2603;DHT22;1311;47.966;7.958;2023-03-15T02:39:13;0.30;99.90
2603;DHT22;1311;47.966;7.958;2023-03-15T02:41:43;0.20;99.90
2603;DHT22;1311;47.966;7.958;2023-03-15T02:44:13;0.20;99.90
2603;DHT22;1311;47.966;7.958;2023-03-15T02:46:43;0.20;99.90
2603;DHT22;1311;47.966;7.958;2023-03-15T02:49:12;0.20;99.90
2603;DHT22;1311;47.966;7.958;2023-03-15T02:51:39;0.00;99.90
2603;DHT22;1311;47.966;7.958;2023-03-15T02:54:06;0.10;99.90
2603;DHT22;1311;47.966;7.958;2023-03-15T02:56:33;-0.10;99.90
2603;DHT22;1311;47.966;7.958;2023-03-15T02:58:59;-0.10;99.90
2603;DHT22;1311;47.966;7.958;2023-03-15T03:01:26;-0.20;99.90
2603;DHT22;1311;47.966;7.958;2023-03-15T03:03:54;-0.10;99.90
2603;DHT22;1311;47.966;7.958;2023-03-15T03:06:21;-0.20;99.90
2603;DHT22;1311;47.966;7.958;2023-03-15T03:08:48;-0.20;99.90
2603;DHT22;1311;47.966;7.958;2023-03-15T03:11:15;-0.30;99.90
2603;DHT22;1311;47.966;7.958;2023-03-15T03:13:42;-0.30;99.90
2603;DHT22;1311;47.966;7.958;2023-03-15T03:16:09;-0.30;99.90
2603;DHT22;1311;47.966;7.958;2023-03-15T03:18:36;-0.40;99.90
2603;DHT22;1311;47.966;7.958;2023-03-15T03:21:06;-0.30;99.90
2603;DHT22;1311;47.966;7.958;2023-03-15T03:23:33;-0.40;99.90
2603;DHT22;1311;47.966;7.958;2023-03-15T03:26:01;-0.30;99.90
2603;DHT22;1311;47.966;7.958;2023-03-15T03:28:30;-0.40;99.90
2603;DHT22;1311;47.966;7.958;2023-03-15T03:30:57;-0.40;99.90
2603;DHT22;1311;47.966;7.958;2023-03-15T03:33:24;-0.40;99.90
2603;DHT22;1311;47.966;7.958;2023-03-15T03:35:51;-0.50;99.90
2603;DHT22;1311;47.966;7.958;2023-03-15T03:38:20;-0.60;99.90
2603;DHT22;1311;47.966;7.958;2023-03-15T03:40:47;-0.50;99.90
2603;DHT22;1311;47.966;7.958;2023-03-15T03:43:14;-0.50;99.90
2603;DHT22;1311;47.966;7.958;2023-03-15T03:45:40;-0.60;99.90
2603;DHT22;1311;47.966;7.958;2023-03-15T03:48:07;-0.70;99.90
2603;DHT22;1311;47.966;7.958;2023-03-15T03:50:34;-0.70;99.90
2603;DHT22;1311;47.966;7.958;2023-03-15T03:53:01;-0.70;99.90
2603;DHT22;1311;47.966;7.958;2023-03-15T03:55:29;-0.70;99.90
2603;DHT22;1311;47.966;7.958;2023-03-15T03:57:58;-0.80;99.90
2603;DHT22;1311;47.966;7.958;2023-03-15T04:00:25;-0.90;99.90
2603;DHT22;1311;47.966;7.958;2023-03-15T04:02:51;-0.80;99.90
2603;DHT22;1311;47.966;7.958;2023-03-15T04:05:19;-0.80;99.90
2603;DHT22;1311;47.966;7.958;2023-03-15T04:07:46;-0.90;99.90
2603;DHT22;1311;47.966;7.958;2023-03-15T04:10:13;-0.90;99.90
2603;DHT22;1311;47.966;7.958;2023-03-15T04:12:41;-1.00;99.90
2603;DHT22;1311;47.966;7.958;2023-03-15T04:15:08;-1.00;99.90
2603;DHT22;1311;47.966;7.958;2023-03-15T04:17:36;-1.00;99.90
2603;DHT22;1311;47.966;7.958;2023-03-15T04:20:03;-1.10;99.90
2603;DHT22;1311;47.966;7.958;2023-03-15T04:22:32;-1.10;99.90
2603;DHT22;1311;47.966;7.958;2023-03-15T04:25:00;-1.10;99.90
2603;DHT22;1311;47.966;7.958;2023-03-15T04:27:27;-1.10;99.90
2603;DHT22;1311;47.966;7.958;2023-03-15T04:29:55;-1.20;99.90
2603;DHT22;1311;47.966;7.958;2023-03-15T04:32:22;-1.20;99.90
2603;DHT22;1311;47.966;7.958;2023-03-15T04:34:49;-1.20;99.90
2603;DHT22;1311;47.966;7.958;2023-03-15T04:37:16;-1.20;99.90
2603;DHT22;1311;47.966;7.958;2023-03-15T04:39:43;-1.30;99.90
2603;DHT22;1311;47.966;7.958;2023-03-15T04:42:10;-1.40;99.90
2603;DHT22;1311;47.966;7.958;2023-03-15T04:44:37;-1.40;99.90
2603;DHT22;1311;47.966;7.958;2023-03-15T04:47:05;-1.30;99.90
2603;DHT22;1311;47.966;7.958;2023-03-15T04:52:00;-1.40;99.90
2603;DHT22;1311;47.966;7.958;2023-03-15T04:54:27;-1.50;99.90
2603;DHT22;1311;47.966;7.958;2023-03-15T04:56:54;-1.50;99.90
2603;DHT22;1311;47.966;7.958;2023-03-15T04:59:20;-1.50;99.90
2603;DHT22;1311;47.966;7.958;2023-03-15T05:01:47;-1.50;99.90
2603;DHT22;1311;47.966;7.958;2023-03-15T05:04:15;-1.50;99.90
2603;DHT22;1311;47.966;7.958;2023-03-15T05:06:42;-1.50;99.90
2603;DHT22;1311;47.966;7.958;2023-03-15T05:09:09;-1.60;99.90
2603;DHT22;1311;47.966;7.958;2023-03-15T05:11:44;-1.60;99.90
2603;DHT22;1311;47.966;7.958;2023-03-15T05:14:10;-1.60;99.90
2603;DHT22;1311;47.966;7.958;2023-03-15T05:16:37;-1.60;99.90
2603;DHT22;1311;47.966;7.958;2023-03-15T05:19:04;-1.60;99.90
2603;DHT22;1311;47.966;7.958;2023-03-15T05:21:32;-1.70;99.90
2603;DHT22;1311;47.966;7.958;2023-03-15T05:23:59;-1.70;99.90
2603;DHT22;1311;47.966;7.958;2023-03-15T05:26:25;-1.60;99.90
2603;DHT22;1311;47.966;7.958;2023-03-15T05:28:52;-1.60;99.90
2603;DHT22;1311;47.966;7.958;2023-03-15T05:31:19;-1.60;99.90
2603;DHT22;1311;47.966;7.958;2023-03-15T05:33:46;-1.60;99.90
2603;DHT22;1311;47.966;7.958;2023-03-15T05:36:13;-1.60;99.90
2603;DHT22;1311;47.966;7.958;2023-03-15T05:38:43;-1.70;99.90
2603;DHT22;1311;47.966;7.958;2023-03-15T05:41:09;-1.60;99.90
2603;DHT22;1311;47.966;7.958;2023-03-15T05:43:36;-1.70;99.90
2603;DHT22;1311;47.966;7.958;2023-03-15T05:46:03;-1.60;99.90
2603;DHT22;1311;47.966;7.958;2023-03-15T05:48:30;-1.70;99.90
2603;DHT22;1311;47.966;7.958;2023-03-15T05:50:57;-1.60;99.90
2603;DHT22;1311;47.966;7.958;2023-03-15T05:53:23;-1.60;99.90
2603;DHT22;1311;47.966;7.958;2023-03-15T05:55:51;-1.70;99.90
2603;DHT22;1311;47.966;7.958;2023-03-15T05:58:18;-1.70;99.90
2603;DHT22;1311;47.966;7.958;2023-03-15T06:00:45;-1.60;99.90
2603;DHT22;1311;47.966;7.958;2023-03-15T06:03:13;-1.60;99.90
2603;DHT22;1311;47.966;7.958;2023-03-15T06:05:40;-1.60;99.90
2603;DHT22;1311;47.966;7.958;2023-03-15T06:08:07;-1.60;99.90
2603;DHT22;1311;47.966;7.958;2023-03-15T06:10:33;-1.60;99.90
2603;DHT22;1311;47.966;7.958;2023-03-15T06:13:02;-1.60;99.90
2603;DHT22;1311;47.966;7.958;2023-03-15T06:15:28;-1.60;99.90
2603;DHT22;1311;47.966;7.958;2023-03-15T06:17:55;-1.50;99.90
2603;DHT22;1311;47.966;7.958;2023-03-15T06:20:22;-1.50;99.90
2603;DHT22;1311;47.966;7.958;2023-03-15T06:22:49;-1.50;99.90
2603;DHT22;1311;47.966;7.958;2023-03-15T06:25:15;-1.40;99.90
2603;DHT22;1311;47.966;7.958;2023-03-15T06:27:42;-1.40;99.90
2603;DHT22;1311;47.966;7.958;2023-03-15T06:30:11;-1.30;99.90
2603;DHT22;1311;47.966;7.958;2023-03-15T06:32:38;-1.30;99.90
2603;DHT22;1311;47.966;7.958;2023-03-15T06:35:05;-1.20;99.90
2603;DHT22;1311;47.966;7.958;2023-03-15T06:37:33;-1.10;99.90
2603;DHT22;1311;47.966;7.958;2023-03-15T06:40:00;-1.10;99.90
2603;DHT22;1311;47.966;7.958;2023-03-15T06:42:28;-0.90;99.90
2603;DHT22;1311;47.966;7.958;2023-03-15T06:44:55;-1.00;99.90
2603;DHT22;1311;47.966;7.958;2023-03-15T06:47:24;-0.90;99.90
2603;DHT22;1311;47.966;7.958;2023-03-15T06:49:51;-0.80;99.90
2603;DHT22;1311;47.966;7.958;2023-03-15T06:52:18;-0.80;99.90
2603;DHT22;1311;47.966;7.958;2023-03-15T06:54:45;-0.60;99.90
2603;DHT22;1311;47.966;7.958;2023-03-15T06:57:11;-0.50;99.90
2603;DHT22;1311;47.966;7.958;2023-03-15T06:59:38;-0.50;99.90
2603;DHT22;1311;47.966;7.958;2023-03-15T07:02:05;-0.40;99.90
2603;DHT22;1311;47.966;7.958;2023-03-15T07:04:34;-0.30;99.90
2603;DHT22;1311;47.966;7.958;2023-03-15T07:07:00;-0.30;99.90
2603;DHT22;1311;47.966;7.958;2023-03-15T07:09:27;-0.20;99.90
2603;DHT22;1311;47.966;7.958;2023-03-15T07:11:54;-0.20;99.90
2603;DHT22;1311;47.966;7.958;2023-03-15T07:14:20;-0.20;99.90
2603;DHT22;1311;47.966;7.958;2023-03-15T07:16:47;-0.20;99.90
2603;DHT22;1311;47.966;7.958;2023-03-15T07:19:14;0.00;99.90
2603;DHT22;1311;47.966;7.958;2023-03-15T07:21:42;0.10;99.90
2603;DHT22;1311;47.966;7.958;2023-03-15T07:24:09;0.10;99.90
2603;DHT22;1311;47.966;7.958;2023-03-15T07:26:36;0.10;99.90
2603;DHT22;1311;47.966;7.958;2023-03-15T07:29:02;0.20;99.90
2603;DHT22;1311;47.966;7.958;2023-03-15T07:31:29;0.30;99.90
2603;DHT22;1311;47.966;7.958;2023-03-15T07:33:56;0.40;99.90
2603;DHT22;1311;47.966;7.958;2023-03-15T07:36:23;0.40;99.90
2603;DHT22;1311;47.966;7.958;2023-03-15T07:38:51;0.60;99.90
2603;DHT22;1311;47.966;7.958;2023-03-15T07:41:18;0.70;99.90
2603;DHT22;1311;47.966;7.958;2023-03-15T07:43:45;0.80;99.90
2603;DHT22;1311;47.966;7.958;2023-03-15T07:46:11;0.80;99.90
2603;DHT22;1311;47.966;7.958;2023-03-15T07:48:38;0.80;99.90
2603;DHT22;1311;47.966;7.958;2023-03-15T07:51:06;1.00;99.90
2603;DHT22;1311;47.966;7.958;2023-03-15T07:53:33;1.00;99.90
2603;DHT22;1311;47.966;7.958;2023-03-15T07:56:01;1.10;99.90
2603;DHT22;1311;47.966;7.958;2023-03-15T07:58:28;1.10;99.90
2603;DHT22;1311;47.966;7.958;2023-03-15T08:00:56;1.20;99.90
2603;DHT22;1311;47.966;7.958;2023-03-15T08:03:23;1.30;99.90
2603;DHT22;1311;47.966;7.958;2023-03-15T08:05:51;1.40;99.90
2603;DHT22;1311;47.966;7.958;2023-03-15T08:08:18;1.50;99.90
2603;DHT22;1311;47.966;7.958;2023-03-15T08:10:45;1.60;99.90
2603;DHT22;1311;47.966;7.958;2023-03-15T08:13:13;1.70;99.90
2603;DHT22;1311;47.966;7.958;2023-03-15T08:15:40;1.90;99.90
2603;DHT22;1311;47.966;7.958;2023-03-15T08:18:10;2.00;99.90
2603;DHT22;1311;47.966;7.958;2023-03-15T08:20:37;2.10;99.90
2603;DHT22;1311;47.966;7.958;2023-03-15T08:23:04;2.20;99.90
2603;DHT22;1311;47.966;7.958;2023-03-15T08:25:31;2.30;99.90
2603;DHT22;1311;47.966;7.958;2023-03-15T08:27:59;2.40;99.90
2603;DHT22;1311;47.966;7.958;2023-03-15T08:30:27;2.50;99.90
2603;DHT22;1311;47.966;7.958;2023-03-15T08:32:54;2.50;99.90
2603;DHT22;1311;47.966;7.958;2023-03-15T08:35:21;2.70;99.90
2603;DHT22;1311;47.966;7.958;2023-03-15T08:37:49;2.90;99.90
2603;DHT22;1311;47.966;7.958;2023-03-15T08:40:18;3.00;99.90
2603;DHT22;1311;47.966;7.958;2023-03-15T08:42:49;3.10;99.90
2603;DHT22;1311;47.966;7.958;2023-03-15T08:45:16;3.30;99.90
2603;DHT22;1311;47.966;7.958;2023-03-15T08:47:45;3.30;99.90
2603;DHT22;1311;47.966;7.958;2023-03-15T08:50:13;3.40;99.90
2603;DHT22;1311;47.966;7.958;2023-03-15T08:52:40;3.50;99.90
2603;DHT22;1311;47.966;7.958;2023-03-15T08:55:08;3.70;99.90
2603;DHT22;1311;47.966;7.958;2023-03-15T08:57:35;4.00;99.90
2603;DHT22;1311;47.966;7.958;2023-03-15T09:00:04;4.20;99.90
2603;DHT22;1311;47.966;7.958;2023-03-15T09:02:33;4.20;99.90
2603;DHT22;1311;47.966;7.958;2023-03-15T09:05:02;4.40;99.90
2603;DHT22;1311;47.966;7.958;2023-03-15T09:07:31;4.30;99.90
2603;DHT22;1311;47.966;7.958;2023-03-15T09:09:58;4.40;99.90
2603;DHT22;1311;47.966;7.958;2023-03-15T09:12:25;4.50;99.90
2603;DHT22;1311;47.966;7.958;2023-03-15T09:14:52;4.60;99.90
2603;DHT22;1311;47.966;7.958;2023-03-15T09:17:19;4.60;99.90
2603;DHT22;1311;47.966;7.958;2023-03-15T09:19:46;4.80;99.90
2603;DHT22;1311;47.966;7.958;2023-03-15T09:22:14;4.90;99.90
2603;DHT22;1311;47.966;7.958;2023-03-15T09:24:41;4.70;99.90
2603;DHT22;1311;47.966;7.958;2023-03-15T09:27:08;4.90;99.90
2603;DHT22;1311;47.966;7.958;2023-03-15T09:29:36;5.00;99.90
2603;DHT22;1311;47.966;7.958;2023-03-15T09:32:03;5.10;99.90
2603;DHT22;1311;47.966;7.958;2023-03-15T09:34:30;5.20;99.90
2603;DHT22;1311;47.966;7.958;2023-03-15T09:36:57;5.30;99.90
2603;DHT22;1311;47.966;7.958;2023-03-15T09:39:25;5.60;99.90
2603;DHT22;1311;47.966;7.958;2023-03-15T09:41:54;5.90;99.90
2603;DHT22;1311;47.966;7.958;2023-03-15T09:44:37;6.10;99.90
2603;DHT22;1311;47.966;7.958;2023-03-15T09:47:20;6.20;99.90
2603;DHT22;1311;47.966;7.958;2023-03-15T09:49:51;6.30;99.90
2603;DHT22;1311;47.966;7.958;2023-03-15T09:52:29;6.50;99.90
2603;DHT22;1311;47.966;7.958;2023-03-15T09:55:03;6.50;99.90
2603;DHT22;1311;47.966;7.958;2023-03-15T09:57:38;6.60;99.90
2603;DHT22;1311;47.966;7.958;2023-03-15T10:00:12;6.60;99.90
2603;DHT22;1311;47.966;7.958;2023-03-15T10:02:45;6.70;99.90
2603;DHT22;1311;47.966;7.958;2023-03-15T10:05:17;6.70;99.90
2603;DHT22;1311;47.966;7.958;2023-03-15T10:07:46;6.80;99.90
2603;DHT22;1311;47.966;7.958;2023-03-15T10:10:24;6.90;99.90
2603;DHT22;1311;47.966;7.958;2023-03-15T10:13:00;7.00;99.90
2603;DHT22;1311;47.966;7.958;2023-03-15T10:15:39;7.40;99.90
2603;DHT22;1311;47.966;7.958;2023-03-15T10:18:22;7.50;99.90
2603;DHT22;1311;47.966;7.958;2023-03-15T10:20:56;7.40;99.90
2603;DHT22;1311;47.966;7.958;2023-03-15T10:23:34;7.60;99.90
2603;DHT22;1311;47.966;7.958;2023-03-15T10:26:05;7.70;99.90
2603;DHT22;1311;47.966;7.958;2023-03-15T10:28:33;7.80;99.90
2603;DHT22;1311;47.966;7.958;2023-03-15T10:31:10;8.10;99.90
2603;DHT22;1311;47.966;7.958;2023-03-15T10:33:38;8.30;99.90
2603;DHT22;1311;47.966;7.958;2023-03-15T10:36:14;8.10;99.90
2603;DHT22;1311;47.966;7.958;2023-03-15T10:38:42;8.30;99.90
2603;DHT22;1311;47.966;7.958;2023-03-15T10:41:12;8.50;99.90
2603;DHT22;1311;47.966;7.958;2023-03-15T10:43:56;8.30;99.90
2603;DHT22;1311;47.966;7.958;2023-03-15T10:46:24;8.50;99.90
2603;DHT22;1311;47.966;7.958;2023-03-15T10:48:56;8.80;99.90
2603;DHT22;1311;47.966;7.958;2023-03-15T10:51:25;8.80;99.90
2603;DHT22;1311;47.966;7.958;2023-03-15T10:53:55;8.80;99.90
2603;DHT22;1311;47.966;7.958;2023-03-15T10:56:25;8.80;99.90
2603;DHT22;1311;47.966;7.958;2023-03-15T10:58:54;9.00;99.90
2603;DHT22;1311;47.966;7.958;2023-03-15T11:01:23;9.20;99.90
2603;DHT22;1311;47.966;7.958;2023-03-15T11:04:00;9.30;99.90
2603;DHT22;1311;47.966;7.958;2023-03-15T11:06:28;9.40;99.90
2603;DHT22;1311;47.966;7.958;2023-03-15T11:09:07;9.50;99.90
2603;DHT22;1311;47.966;7.958;2023-03-15T11:11:55;9.70;99.90
2603;DHT22;1311;47.966;7.958;2023-03-15T11:14:22;9.60;99.90
2603;DHT22;1311;47.966;7.958;2023-03-15T11:16:52;9.40;99.90
2603;DHT22;1311;47.966;7.958;2023-03-15T11:19:21;9.10;99.90
2603;DHT22;1311;47.966;7.958;2023-03-15T11:21:50;9.20;99.90
2603;DHT22;1311;47.966;7.958;2023-03-15T11:24:22;9.00;99.90
2603;DHT22;1311;47.966;7.958;2023-03-15T11:26:52;8.80;99.90
2603;DHT22;1311;47.966;7.958;2023-03-15T11:29:23;9.10;99.90
2603;DHT22;1311;47.966;7.958;2023-03-15T11:31:51;8.70;99.90
2603;DHT22;1311;47.966;7.958;2023-03-15T11:34:25;8.60;99.90
2603;DHT22;1311;47.966;7.958;2023-03-15T11:36:55;8.70;99.90
2603;DHT22;1311;47.966;7.958;2023-03-15T11:39:30;8.50;99.90
2603;DHT22;1311;47.966;7.958;2023-03-15T11:42:05;8.50;99.90
2603;DHT22;1311;47.966;7.958;2023-03-15T11:44:38;8.80;99.90
2603;DHT22;1311;47.966;7.958;2023-03-15T11:47:12;9.30;99.90
2603;DHT22;1311;47.966;7.958;2023-03-15T11:49:45;9.50;99.90
2603;DHT22;1311;47.966;7.958;2023-03-15T11:52:14;9.80;99.90
2603;DHT22;1311;47.966;7.958;2023-03-15T11:54:42;9.70;99.90
2603;DHT22;1311;47.966;7.958;2023-03-15T11:57:42;9.90;99.90
2603;DHT22;1311;47.966;7.958;2023-03-15T12:03:31;9.80;1.00
2603;DHT22;1311;47.966;7.958;2023-03-15T12:06:09;9.90;99.90
2603;DHT22;1311;47.966;7.958;2023-03-15T12:08:42;9.90;1.00
2603;DHT22;1311;47.966;7.958;2023-03-15T12:11:10;10.00;99.90
2603;DHT22;1311;47.966;7.958;2023-03-15T12:13:50;10.30;99.90
2603;DHT22;1311;47.966;7.958;2023-03-15T12:16:20;10.50;99.90
2603;DHT22;1311;47.966;7.958;2023-03-15T12:18:47;10.50;1.00
2603;DHT22;1311;47.966;7.958;2023-03-15T12:21:19;10.50;1.00
2603;DHT22;1311;47.966;7.958;2023-03-15T12:23:55;10.70;1.00
2603;DHT22;1311;47.966;7.958;2023-03-15T12:26:26;10.70;1.00
2603;DHT22;1311;47.966;7.958;2023-03-15T12:29:11;11.10;1.00
2603;DHT22;1311;47.966;7.958;2023-03-15T12:31:49;11.40;1.00
2603;DHT22;1311;47.966;7.958;2023-03-15T12:34:24;11.70;99.90
2603;DHT22;1311;47.966;7.958;2023-03-15T12:36:55;11.90;1.00
2603;DHT22;1311;47.966;7.958;2023-03-15T12:39:46;11.70;1.00
2603;DHT22;1311;47.966;7.958;2023-03-15T12:45:44;11.50;99.90
2603;DHT22;1311;47.966;7.958;2023-03-15T12:48:32;11.00;99.90
2603;DHT22;1311;47.966;7.958;2023-03-15T12:51:09;11.20;99.90
2603;DHT22;1311;47.966;7.958;2023-03-15T12:53:46;11.40;99.90
2603;DHT22;1311;47.966;7.958;2023-03-15T12:56:32;11.50;99.90
2603;DHT22;1311;47.966;7.958;2023-03-15T12:59:08;11.70;99.90
2603;DHT22;1311;47.966;7.958;2023-03-15T13:01:39;11.60;99.90
2603;DHT22;1311;47.966;7.958;2023-03-15T13:04:08;11.30;99.90
2603;DHT22;1311;47.966;7.958;2023-03-15T13:06:48;10.90;99.90
2603;DHT22;1311;47.966;7.958;2023-03-15T13:09:24;10.50;99.90
2603;DHT22;1311;47.966;7.958;2023-03-15T13:12:02;10.30;99.90
2603;DHT22;1311;47.966;7.958;2023-03-15T13:14:39;10.30;99.90
2603;DHT22;1311;47.966;7.958;2023-03-15T13:17:20;10.20;1.00
2603;DHT22;1311;47.966;7.958;2023-03-15T13:19:53;10.30;1.00
2603;DHT22;1311;47.966;7.958;2023-03-15T13:22:26;10.60;1.00
2603;DHT22;1311;47.966;7.958;2023-03-15T13:25:00;10.90;1.00
2603;DHT22;1311;47.966;7.958;2023-03-15T13:27:45;11.40;1.00
2603;DHT22;1311;47.966;7.958;2023-03-15T13:30:32;11.60;1.00
2603;DHT22;1311;47.966;7.958;2023-03-15T13:33:14;11.80;1.00
2603;DHT22;1311;47.966;7.958;2023-03-15T13:35:45;12.00;99.90
2603;DHT22;1311;47.966;7.958;2023-03-15T13:38:23;11.30;99.90
2603;DHT22;1311;47.966;7.958;2023-03-15T13:40:50;11.30;99.90
2603;DHT22;1311;47.966;7.958;2023-03-15T13:43:17;11.70;99.90
2603;DHT22;1311;47.966;7.958;2023-03-15T13:45:44;12.10;99.90
2603;DHT22;1311;47.966;7.958;2023-03-15T13:48:13;12.40;99.90
2603;DHT22;1311;47.966;7.958;2023-03-15T13:50:40;12.50;99.90
2603;DHT22;1311;47.966;7.958;2023-03-15T13:53:09;12.50;63.40
2603;DHT22;1311;47.966;7.958;2023-03-15T13:55:37;12.40;1.00
2603;DHT22;1311;47.966;7.958;2023-03-15T13:58:05;12.20;1.00
2603;DHT22;1311;47.966;7.958;2023-03-15T14:00:34;12.10;1.00
2603;DHT22;1311;47.966;7.958;2023-03-15T14:03:04;12.00;1.00
2603;DHT22;1311;47.966;7.958;2023-03-15T14:05:33;12.30;1.00
2603;DHT22;1311;47.966;7.958;2023-03-15T14:08:17;12.50;1.00
2603;DHT22;1311;47.966;7.958;2023-03-15T14:10:58;12.50;1.00
2603;DHT22;1311;47.966;7.958;2023-03-15T14:13:27;12.40;1.00
2603;DHT22;1311;47.966;7.958;2023-03-15T14:15:58;12.30;1.00
2603;DHT22;1311;47.966;7.958;2023-03-15T14:18:31;12.20;1.00
2603;DHT22;1311;47.966;7.958;2023-03-15T14:21:01;11.80;1.00
2603;DHT22;1311;47.966;7.958;2023-03-15T14:23:29;11.80;1.00
2603;DHT22;1311;47.966;7.958;2023-03-15T14:26:09;12.30;1.00
2603;DHT22;1311;47.966;7.958;2023-03-15T14:28:37;12.30;1.00
2603;DHT22;1311;47.966;7.958;2023-03-15T14:31:05;12.20;1.00
2603;DHT22;1311;47.966;7.958;2023-03-15T14:33:35;12.20;1.00
2603;DHT22;1311;47.966;7.958;2023-03-15T14:36:06;12.10;1.00
2603;DHT22;1311;47.966;7.958;2023-03-15T14:38:35;12.20;1.00
2603;DHT22;1311;47.966;7.958;2023-03-15T14:41:29;12.20;1.00
2603;DHT22;1311;47.966;7.958;2023-03-15T14:43:57;12.00;1.00
2603;DHT22;1311;47.966;7.958;2023-03-15T14:46:24;11.60;1.00
2603;DHT22;1311;47.966;7.958;2023-03-15T14:48:52;11.80;1.00
2603;DHT22;1311;47.966;7.958;2023-03-15T14:51:21;11.60;1.00
2603;DHT22;1311;47.966;7.958;2023-03-15T14:53:51;11.30;2.20
2603;DHT22;1311;47.966;7.958;2023-03-15T14:56:19;11.70;99.90
2603;DHT22;1311;47.966;7.958;2023-03-15T14:58:45;11.70;99.90
2603;DHT22;1311;47.966;7.958;2023-03-15T15:01:16;12.00;99.90
2603;DHT22;1311;47.966;7.958;2023-03-15T15:03:45;11.90;99.90
2603;DHT22;1311;47.966;7.958;2023-03-15T15:06:14;12.10;99.90
2603;DHT22;1311;47.966;7.958;2023-03-15T15:08:44;12.00;99.90
2603;DHT22;1311;47.966;7.958;2023-03-15T15:11:12;11.70;99.90
2603;DHT22;1311;47.966;7.958;2023-03-15T15:13:39;11.50;99.90
2603;DHT22;1311;47.966;7.958;2023-03-15T15:16:07;11.50;99.90
2603;DHT22;1311;47.966;7.958;2023-03-15T15:18:35;11.50;99.90
2603;DHT22;1311;47.966;7.958;2023-03-15T15:21:09;11.50;99.90
2603;DHT22;1311;47.966;7.958;2023-03-15T15:23:39;11.70;99.90
2603;DHT22;1311;47.966;7.958;2023-03-15T15:26:17;11.70;99.90
2603;DHT22;1311;47.966;7.958;2023-03-15T15:28:45;11.70;99.90
2603;DHT22;1311;47.966;7.958;2023-03-15T15:31:15;11.70;91.40
2603;DHT22;1311;47.966;7.958;2023-03-15T15:33:42;11.50;1.00
2603;DHT22;1311;47.966;7.958;2023-03-15T15:36:12;11.30;1.00
2603;DHT22;1311;47.966;7.958;2023-03-15T15:38:39;11.20;1.00
2603;DHT22;1311;47.966;7.958;2023-03-15T15:41:12;11.10;1.00
2603;DHT22;1311;47.966;7.958;2023-03-15T15:43:40;11.20;14.10
2603;DHT22;1311;47.966;7.958;2023-03-15T15:46:08;11.20;99.90
2603;DHT22;1311;47.966;7.958;2023-03-15T15:48:36;11.00;99.90
2603;DHT22;1311;47.966;7.958;2023-03-15T15:51:15;10.70;99.90
2603;DHT22;1311;47.966;7.958;2023-03-15T15:53:44;10.50;99.90
2603;DHT22;1311;47.966;7.958;2023-03-15T15:56:12;10.30;99.90
2603;DHT22;1311;47.966;7.958;2023-03-15T15:58:39;10.20;1.00
2603;DHT22;1311;47.966;7.958;2023-03-15T16:01:10;10.10;1.00
2603;DHT22;1311;47.966;7.958;2023-03-15T16:03:37;10.30;99.90
2603;DHT22;1311;47.966;7.958;2023-03-15T16:06:04;10.30;99.90
2603;DHT22;1311;47.966;7.958;2023-03-15T16:08:35;10.00;99.90
2603;DHT22;1311;47.966;7.958;2023-03-15T16:11:04;9.60;1.00
2603;DHT22;1311;47.966;7.958;2023-03-15T16:13:33;9.40;1.00
2603;DHT22;1311;47.966;7.958;2023-03-15T16:16:00;9.30;99.90
2603;DHT22;1311;47.966;7.958;2023-03-15T16:18:26;9.10;99.90
2603;DHT22;1311;47.966;7.958;2023-03-15T16:20:53;9.00;99.90
2603;DHT22;1311;47.966;7.958;2023-03-15T16:23:21;8.90;99.90
2603;DHT22;1311;47.966;7.958;2023-03-15T16:25:52;8.90;99.90
2603;DHT22;1311;47.966;7.958;2023-03-15T16:28:20;8.90;99.90
2603;DHT22;1311;47.966;7.958;2023-03-15T16:30:48;8.80;99.90
2603;DHT22;1311;47.966;7.958;2023-03-15T16:33:17;8.70;99.90
2603;DHT22;1311;47.966;7.958;2023-03-15T16:35:44;8.70;1.00